Time;durP1;ratioP1;P1;durP2;ratioP2;P2;SDS_P1;SDS_P2;PMS_P1;PMS_P2;Temp;Humidity;BMP_temperature;BMP_pressure;BME280_temperature;BME280_humidity;BME280_pressure;Samples;Min_cycle;Max_cycle;Signal;HPM_P1;HPM_P2
2022/09/11 00:01:26;;;;;;;31.02;27.77;;;14.00;99.90;;;;;;5052111;28;20498;-86
2022/09/11 00:03:56;;;;;;;26.55;24.05;;;14.00;99.90;;;;;;5043085;28;20079;-86
2022/09/11 00:06:23;;;;;;;35.53;28.13;;;14.00;99.90;;;;;;5050869;28;20535;-86
2022/09/11 00:09:01;;;;;;;28.38;25.17;;;14.00;99.90;;;;;;5069946;28;20512;-85
2022/09/11 00:11:34;;;;;;;27.00;24.52;;;14.00;99.90;;;;;;5050774;28;20078;-85
2022/09/11 00:14:00;;;;;;;28.05;25.20;;;13.90;99.90;;;;;;5050147;28;20130;-85
2022/09/11 00:16:36;;;;;;;29.83;26.83;;;13.90;99.90;;;;;;5041591;28;20044;-86
2022/09/11 00:19:09;;;;;;;33.25;29.75;;;13.90;99.90;;;;;;5059140;28;20036;-86
2022/09/11 00:21:39;;;;;;;46.13;32.92;;;13.90;99.90;;;;;;5059858;28;20044;-86
2022/09/11 00:24:08;;;;;;;29.17;26.38;;;13.90;99.90;;;;;;5073387;28;20057;-85
2022/09/11 00:26:39;;;;;;;31.08;27.77;;;13.80;99.90;;;;;;5061790;28;20039;-86
2022/09/11 00:29:08;;;;;;;30.00;27.05;;;13.70;99.90;;;;;;5036611;28;20108;-86
2022/09/11 00:31:34;;;;;;;69.47;36.13;;;13.80;99.90;;;;;;5056241;28;20086;-85
2022/09/11 00:34:00;;;;;;;80.07;40.65;;;13.70;99.90;;;;;;5059463;28;20082;-85
2022/09/11 00:36:28;;;;;;;34.38;30.73;;;13.70;99.90;;;;;;5064053;28;20239;-86
2022/09/11 00:38:55;;;;;;;32.70;29.27;;;13.70;99.90;;;;;;5058181;28;20141;-86
2022/09/11 00:41:33;;;;;;;35.42;31.38;;;13.70;99.90;;;;;;5047776;28;20130;-85
2022/09/11 00:44:14;;;;;;;35.10;30.98;;;13.70;99.90;;;;;;5060380;28;20050;-86
2022/09/11 00:46:52;;;;;;;113.18;45.00;;;13.70;99.90;;;;;;5054376;28;20550;-84
2022/09/11 00:49:29;;;;;;;202.25;55.45;;;13.60;99.90;;;;;;5058556;28;20070;-86
2022/09/11 00:52:09;;;;;;;144.07;49.75;;;13.60;99.90;;;;;;5076562;28;20047;-85
2022/09/11 00:54:42;;;;;;;64.00;37.70;;;13.60;99.90;;;;;;5060499;28;20043;-86
2022/09/11 00:57:08;;;;;;;103.35;39.88;;;13.50;99.90;;;;;;5055308;28;20052;-86
2022/09/11 00:59:36;;;;;;;108.47;39.33;;;13.50;99.90;;;;;;5047737;28;20044;-86
2022/09/11 01:02:02;;;;;;;37.22;31.48;;;13.40;99.90;;;;;;5059699;28;20036;-85
2022/09/11 01:04:28;;;;;;;80.15;38.47;;;13.40;99.90;;;;;;5059230;28;20417;-86
2022/09/11 01:06:56;;;;;;;31.33;25.73;;;13.30;99.90;;;;;;5052049;28;20076;-85
2022/09/11 01:09:25;;;;;;;35.85;28.55;;;13.30;99.90;;;;;;5055459;28;20039;-85
2022/09/11 01:12:09;;;;;;;31.27;28.02;;;13.30;99.90;;;;;;5063235;28;20031;-86
2022/09/11 01:15:07;;;;;;;52.30;33.33;;;13.20;99.90;;;;;;5073331;28;20039;-86
2022/09/11 01:17:59;;;;;;;62.72;34.25;;;13.20;99.90;;;;;;5077819;28;20090;-86
2022/09/11 01:21:01;;;;;;;56.15;35.50;;;13.20;99.90;;;;;;5051121;27;20757;-86
2022/09/11 01:23:43;;;;;;;196.43;42.53;;;13.20;99.90;;;;;;5088127;28;20036;-86
2022/09/11 01:26:33;;;;;;;87.72;29.88;;;13.10;99.90;;;;;;5074137;28;20047;-85
2022/09/11 01:29:08;;;;;;;24.58;22.30;;;13.00;99.90;;;;;;5067992;28;20035;-86
2022/09/11 01:31:52;;;;;;;23.45;21.30;;;13.00;99.90;;;;;;5072506;27;20048;-86
2022/09/11 01:34:31;;;;;;;26.08;23.45;;;13.00;99.90;;;;;;5089387;27;20074;-86
2022/09/11 01:37:09;;;;;;;29.50;26.63;;;13.00;99.90;;;;;;5070522;27;20035;-86
2022/09/11 01:39:47;;;;;;;30.35;27.35;;;13.00;99.90;;;;;;5079092;27;20062;-86
2022/09/11 01:42:21;;;;;;;28.10;25.45;;;13.00;99.90;;;;;;5075920;27;20054;-86
2022/09/11 01:44:54;;;;;;;48.20;29.63;;;13.00;99.90;;;;;;5096561;28;20141;-86
2022/09/11 01:47:21;;;;;;;144.80;35.17;;;13.00;99.90;;;;;;5068448;28;20048;-86
2022/09/11 01:50:00;;;;;;;287.58;51.63;;;13.00;99.90;;;;;;5071256;27;20432;-83
2022/09/11 01:52:34;;;;;;;273.70;44.57;;;13.00;99.90;;;;;;5062424;28;20494;-84
2022/09/11 01:55:10;;;;;;;33.35;23.63;;;12.90;99.90;;;;;;5064540;28;20056;-84
2022/09/11 01:57:42;;;;;;;59.20;29.25;;;12.90;99.90;;;;;;5067693;28;20056;-85
2022/09/11 02:00:12;;;;;;;81.55;36.88;;;12.90;99.90;;;;;;5057647;28;20051;-84
2022/09/11 02:02:45;;;;;;;24.90;22.67;;;12.90;99.90;;;;;;5049864;28;20458;-84
2022/09/11 02:05:36;;;;;;;26.70;24.10;;;12.80;99.90;;;;;;5055881;28;20088;-84
2022/09/11 02:08:17;;;;;;;29.65;26.75;;;12.90;99.90;;;;;;5059797;28;20058;-84
2022/09/11 02:10:51;;;;;;;48.35;34.30;;;12.90;99.90;;;;;;5066896;28;20071;-84
2022/09/11 02:13:48;;;;;;;63.65;38.22;;;13.00;99.90;;;;;;5052538;28;20043;-84
2022/09/11 02:16:20;;;;;;;57.15;33.38;;;13.00;99.90;;;;;;5058249;28;20059;-83
2022/09/11 02:19:04;;;;;;;110.57;42.47;;;13.00;99.90;;;;;;5047147;28;20131;-83
2022/09/11 02:21:31;;;;;;;26.08;23.58;;;12.90;99.90;;;;;;5066559;28;20101;-83
2022/09/11 02:23:59;;;;;;;31.25;28.13;;;12.90;99.90;;;;;;5058613;28;20051;-84
2022/09/11 02:26:29;;;;;;;87.53;27.45;;;12.90;99.90;;;;;;5067261;28;20079;-84
2022/09/11 02:28:55;;;;;;;;;;;12.90;99.90;;;;;;5059833;28;20067;-84
2022/09/11 02:31:21;;;;;;;40.83;28.52;;;12.80;99.90;;;;;;5046015;28;20264;-85
2022/09/11 02:33:48;;;;;;;27.58;24.98;;;12.80;99.90;;;;;;5027728;28;20064;-83
2022/09/11 02:36:34;;;;;;;51.78;32.53;;;12.80;99.90;;;;;;5067402;28;20044;-85
2022/09/11 02:39:32;;;;;;;96.18;39.08;;;12.80;99.90;;;;;;5080874;28;20051;-85
2022/09/11 02:42:26;;;;;;;28.83;24.15;;;12.80;99.90;;;;;;5010380;28;20056;-85
2022/09/11 02:45:22;;;;;;;24.40;22.23;;;12.80;99.90;;;;;;5070030;28;20048;-85
2022/09/11 02:48:12;;;;;;;166.38;46.15;;;12.80;99.90;;;;;;5071494;28;20127;-85
2022/09/11 02:50:47;;;;;;;;;;;12.70;99.90;;;;;;5078101;28;20051;-85
2022/09/11 02:53:33;;;;;;;252.38;48.45;;;12.70;99.90;;;;;;5058683;28;19921;-85
2022/09/11 02:56:22;;;;;;;85.53;25.63;;;12.60;99.90;;;;;;5060102;28;20044;-85
2022/09/11 02:59:00;;;;;;;391.50;47.42;;;12.60;99.90;;;;;;5045426;28;20052;-85
2022/09/11 03:01:26;;;;;;;331.45;36.45;;;12.60;99.90;;;;;;5068296;28;20052;-87
2022/09/11 03:03:51;;;;;;;162.80;29.13;;;12.60;99.90;;;;;;5050390;28;20048;-87
2022/09/11 03:06:23;;;;;;;338.40;38.28;;;12.50;99.90;;;;;;5058189;28;20036;-87
2022/09/11 03:08:49;;;;;;;118.03;28.55;;;12.50;99.90;;;;;;5056464;28;20079;-88
2022/09/11 03:11:16;;;;;;;314.58;37.03;;;12.50;99.90;;;;;;5041480;28;20526;-86
2022/09/11 03:13:43;;;;;;;316.55;46.50;;;12.50;99.90;;;;;;5031084;28;20787;-87
2022/09/11 03:16:12;;;;;;;21.92;19.95;;;12.50;99.90;;;;;;5060958;28;20048;-87
2022/09/11 03:18:38;;;;;;;24.67;22.13;;;12.40;99.90;;;;;;5046652;28;20131;-88
2022/09/11 03:21:04;;;;;;;26.52;24.02;;;12.40;99.90;;;;;;5059916;28;20096;-87
2022/09/11 03:23:31;;;;;;;78.35;26.23;;;12.40;99.90;;;;;;5073438;28;20044;-87
2022/09/11 03:25:57;;;;;;;280.83;44.40;;;12.40;99.90;;;;;;5049347;28;20091;-87
2022/09/11 03:28:23;;;;;;;214.25;46.60;;;12.40;99.90;;;;;;5060114;28;20585;-88
2022/09/11 03:30:51;;;;;;;91.55;32.45;;;12.30;99.90;;;;;;5073559;28;20045;-87
2022/09/11 03:33:17;;;;;;;69.88;33.42;;;12.40;99.90;;;;;;5053105;28;20450;-88
2022/09/11 03:35:43;;;;;;;30.23;26.05;;;12.40;99.90;;;;;;5037489;28;20044;-87
2022/09/11 03:38:10;;;;;;;30.05;26.80;;;12.30;99.90;;;;;;5072529;28;20106;-88
2022/09/11 03:40:37;;;;;;;31.00;27.75;;;12.40;99.90;;;;;;5060842;28;20052;-87
2022/09/11 03:43:03;;;;;;;37.53;30.42;;;12.40;99.90;;;;;;5065278;28;20047;-88
2022/09/11 03:45:29;;;;;;;31.92;28.63;;;12.40;99.90;;;;;;5065647;28;20102;-88
2022/09/11 03:47:55;;;;;;;34.83;29.85;;;12.40;99.90;;;;;;5068332;28;20052;-87
2022/09/11 03:50:21;;;;;;;56.85;32.25;;;12.50;99.90;;;;;;5029166;28;20039;-87
2022/09/11 03:52:48;;;;;;;257.25;41.33;;;12.50;99.90;;;;;;5029239;28;20055;-87
2022/09/11 03:55:15;;;;;;;216.07;49.65;;;12.40;99.90;;;;;;5034663;28;20087;-88
2022/09/11 03:57:41;;;;;;;27.25;24.58;;;12.40;99.90;;;;;;5052737;28;20063;-87
2022/09/11 04:00:09;;;;;;;30.38;27.30;;;12.40;99.90;;;;;;5061600;28;20036;-87
2022/09/11 04:02:34;;;;;;;132.40;39.22;;;12.40;99.90;;;;;;5069330;28;20078;-87
2022/09/11 04:05:03;;;;;;;33.38;26.40;;;12.30;99.90;;;;;;5077606;28;20040;-88
2022/09/11 04:07:30;;;;;;;97.85;33.28;;;12.30;99.90;;;;;;5065234;28;20040;-85
2022/09/11 04:09:59;;;;;;;153.52;46.05;;;12.30;99.90;;;;;;5048238;28;20048;-85
2022/09/11 04:12:25;;;;;;;190.25;42.08;;;12.20;99.90;;;;;;5039210;28;20112;-85
2022/09/11 04:14:51;;;;;;;43.08;30.15;;;12.20;99.90;;;;;;5036444;28;20455;-85
2022/09/11 04:17:17;;;;;;;277.02;40.72;;;12.20;99.90;;;;;;5064419;28;20119;-85
2022/09/11 04:19:43;;;;;;;32.72;29.38;;;12.20;99.90;;;;;;5063439;28;20462;-86
2022/09/11 04:22:09;;;;;;;65.70;27.35;;;12.20;99.90;;;;;;5024294;28;20154;-85
2022/09/11 04:24:36;;;;;;;26.50;23.77;;;12.20;99.90;;;;;;5066555;28;20055;-84
2022/09/11 04:27:02;;;;;;;199.57;47.67;;;12.20;99.90;;;;;;5038197;28;20570;-84
2022/09/11 04:29:31;;;;;;;263.90;47.17;;;12.20;99.90;;;;;;5042587;28;20119;-85
2022/09/11 04:31:57;;;;;;;181.52;40.80;;;12.20;99.90;;;;;;5049185;28;20059;-85
2022/09/11 04:34:25;;;;;;;27.65;24.90;;;12.20;99.90;;;;;;5049085;28;20506;-86
2022/09/11 04:36:51;;;;;;;24.30;21.98;;;12.10;99.90;;;;;;5061350;28;20044;-85
2022/09/11 04:39:17;;;;;;;59.30;33.72;;;12.10;99.90;;;;;;5053493;28;20083;-85
2022/09/11 04:41:43;;;;;;;36.22;27.55;;;12.10;99.90;;;;;;5016142;28;20052;-87
2022/09/11 04:44:09;;;;;;;30.48;24.58;;;12.10;99.90;;;;;;5052200;28;20044;-86
2022/09/11 04:46:34;;;;;;;22.02;20.33;;;12.10;99.90;;;;;;5038819;28;20040;-86
2022/09/11 04:49:01;;;;;;;23.38;21.33;;;12.10;99.90;;;;;;5057548;28;20070;-85
2022/09/11 04:51:32;;;;;;;25.15;22.83;;;12.10;99.90;;;;;;5058390;28;20052;-86
2022/09/11 04:53:58;;;;;;;28.15;25.55;;;12.20;99.90;;;;;;5056322;28;20045;-86
2022/09/11 04:56:28;;;;;;;45.03;31.25;;;12.30;99.90;;;;;;5032069;28;20117;-87
2022/09/11 04:58:59;;;;;;;24.57;22.47;;;12.30;99.90;;;;;;5057248;28;20036;-87
2022/09/11 05:01:28;;;;;;;26.88;24.00;;;12.30;99.90;;;;;;5070596;28;20036;-87
2022/09/11 05:03:55;;;;;;;24.20;22.00;;;12.30;99.90;;;;;;5068442;28;20056;-86
2022/09/11 05:06:21;;;;;;;23.40;21.30;;;12.40;99.90;;;;;;5064196;28;20045;-86
2022/09/11 05:08:49;;;;;;;30.50;24.23;;;12.40;99.90;;;;;;5065909;28;20044;-87
2022/09/11 05:11:17;;;;;;;64.22;33.42;;;12.40;99.90;;;;;;5050746;28;20040;-85
2022/09/11 05:13:43;;;;;;;23.77;21.65;;;12.40;99.90;;;;;;5055752;28;20107;-86
2022/09/11 05:16:11;;;;;;;39.90;27.80;;;12.30;99.90;;;;;;5081310;28;20033;-86
2022/09/11 05:18:41;;;;;;;54.20;31.05;;;12.40;99.90;;;;;;5056115;28;20036;-86
2022/09/11 05:21:11;;;;;;;28.10;25.45;;;12.40;99.90;;;;;;5073786;28;20546;-86
2022/09/11 05:23:38;;;;;;;59.28;33.78;;;12.40;99.90;;;;;;5077744;28;20053;-86
2022/09/11 05:26:05;;;;;;;27.38;24.85;;;12.40;99.90;;;;;;5062015;28;20088;-87
2022/09/11 05:28:32;;;;;;;24.45;22.35;;;12.40;99.90;;;;;;5068827;28;20549;-86
2022/09/11 05:30:58;;;;;;;27.77;25.17;;;12.40;99.90;;;;;;5058167;28;20063;-86
2022/09/11 05:33:26;;;;;;;26.95;24.55;;;12.40;99.90;;;;;;5081906;28;20056;-86
2022/09/11 05:35:53;;;;;;;33.63;28.83;;;12.50;99.90;;;;;;5057185;28;20127;-77
2022/09/11 05:38:19;;;;;;;27.65;25.05;;;12.50;99.90;;;;;;5062712;28;20075;-78
2022/09/11 05:40:48;;;;;;;31.67;28.38;;;12.60;99.90;;;;;;5058439;28;20041;-77
2022/09/11 05:43:18;;;;;;;26.77;24.23;;;12.60;99.90;;;;;;5050833;28;20036;-87
2022/09/11 05:45:52;;;;;;;28.38;25.45;;;12.70;99.90;;;;;;5067820;28;20055;-86
2022/09/11 05:48:19;;;;;;;43.78;32.58;;;12.70;99.90;;;;;;5056854;28;20463;-87
2022/09/11 05:50:55;;;;;;;25.80;23.48;;;12.70;99.90;;;;;;5053220;28;20369;-86
2022/09/11 05:53:22;;;;;;;54.67;34.30;;;12.70;99.90;;;;;;5055221;28;20048;-86
2022/09/11 05:55:50;;;;;;;30.90;27.80;;;12.70;99.90;;;;;;5077724;28;20110;-86
2022/09/11 05:58:16;;;;;;;62.33;37.53;;;12.80;99.90;;;;;;5060214;28;20513;-86
2022/09/11 06:00:45;;;;;;;76.00;42.25;;;12.80;99.90;;;;;;5072928;28;20143;-86
2022/09/11 06:03:15;;;;;;;102.90;45.83;;;12.90;99.90;;;;;;5060434;28;20388;-86
2022/09/11 06:05:42;;;;;;;82.47;43.97;;;12.90;99.90;;;;;;5056225;28;20127;-87
2022/09/11 06:08:09;;;;;;;51.72;36.88;;;12.90;99.90;;;;;;5059080;28;20487;-86
2022/09/11 06:10:47;;;;;;;96.72;49.08;;;13.00;99.90;;;;;;5080423;28;20444;-87
2022/09/11 06:13:19;;;;;;;101.38;48.33;;;13.10;99.90;;;;;;5057973;28;20128;-86
2022/09/11 06:15:46;;;;;;;34.38;30.60;;;13.00;99.90;;;;;;5055164;28;20090;-87
2022/09/11 06:18:13;;;;;;;87.45;46.20;;;13.10;99.90;;;;;;5060161;28;20048;-87
2022/09/11 06:20:39;;;;;;;37.35;33.03;;;13.10;99.90;;;;;;5054582;28;20052;-87
2022/09/11 06:23:08;;;;;;;40.95;33.05;;;13.20;99.90;;;;;;5051620;28;20494;-86
2022/09/11 06:25:34;;;;;;;48.80;35.45;;;13.20;99.90;;;;;;5045803;28;20043;-86
2022/09/11 06:28:01;;;;;;;30.42;27.55;;;13.30;99.90;;;;;;5088691;28;20432;-85
2022/09/11 06:30:27;;;;;;;49.03;35.15;;;13.30;99.90;;;;;;5042737;28;20041;-85
2022/09/11 06:32:55;;;;;;;33.13;29.73;;;13.40;99.90;;;;;;5044914;28;20043;-86
2022/09/11 06:35:22;;;;;;;31.35;28.30;;;13.40;99.90;;;;;;5079544;28;20115;-86
2022/09/11 06:37:48;;;;;;;31.00;28.10;;;13.50;99.90;;;;;;5037029;28;20048;-85
2022/09/11 06:40:17;;;;;;;30.70;27.80;;;13.50;99.90;;;;;;5066627;28;20127;-87
2022/09/11 06:42:43;;;;;;;32.08;28.92;;;13.60;99.90;;;;;;5065889;28;20050;-86
2022/09/11 06:45:09;;;;;;;34.20;30.95;;;13.70;99.90;;;;;;5070618;28;20044;-87
2022/09/11 06:47:38;;;;;;;35.13;31.65;;;13.80;99.90;;;;;;5067401;28;20075;-87
2022/09/11 06:50:04;;;;;;;33.95;30.85;;;13.90;99.90;;;;;;5070723;28;20055;-87
2022/09/11 06:52:33;;;;;;;32.25;29.00;;;13.90;99.90;;;;;;5047289;28;20041;-87
2022/09/11 06:55:00;;;;;;;35.97;32.30;;;14.00;99.90;;;;;;5089071;28;20133;-88
2022/09/11 06:57:46;;;;;;;40.05;36.00;;;14.10;99.90;;;;;;5066803;28;20134;-88
2022/09/11 07:00:13;;;;;;;36.70;33.17;;;14.20;99.90;;;;;;5080884;28;20079;-88
2022/09/11 07:02:39;;;;;;;36.92;33.30;;;14.30;99.90;;;;;;5049377;28;20109;-87
2022/09/11 07:05:09;;;;;;;40.13;36.00;;;14.40;99.90;;;;;;5087412;28;20040;-88
2022/09/11 07:07:38;;;;;;;37.28;33.70;;;14.50;99.90;;;;;;5079717;28;20044;-88
2022/09/11 07:10:05;;;;;;;37.20;33.50;;;14.70;99.90;;;;;;5055747;28;20055;-88
2022/09/11 07:12:33;;;;;;;36.33;32.85;;;14.80;99.90;;;;;;5062114;28;20452;-88
2022/09/11 07:15:00;;;;;;;35.88;32.63;;;15.00;99.90;;;;;;5055132;28;20066;-87
2022/09/11 07:17:25;;;;;;;34.40;31.05;;;15.10;99.90;;;;;;5043697;28;20045;-87
2022/09/11 07:19:51;;;;;;;33.60;30.65;;;15.30;99.90;;;;;;5045824;28;20051;-86
2022/09/11 07:22:18;;;;;;;30.92;28.02;;;15.40;99.90;;;;;;5072468;28;20514;-86
2022/09/11 07:24:46;;;;;;;30.27;27.50;;;15.60;99.90;;;;;;5042834;28;20040;-86
2022/09/11 07:27:13;;;;;;;28.92;26.17;;;15.70;99.90;;;;;;5054594;28;20058;-86
2022/09/11 07:29:38;;;;;;;27.42;24.92;;;15.90;99.90;;;;;;5032333;28;20063;-87
2022/09/11 07:32:04;;;;;;;25.90;23.80;;;16.00;99.90;;;;;;5072399;28;20035;-86
2022/09/11 07:34:30;;;;;;;26.67;24.38;;;16.10;99.90;;;;;;5046387;28;20076;-86
2022/09/11 07:36:55;;;;;;;25.23;22.73;;;16.30;99.90;;;;;;5081253;28;20044;-86
2022/09/11 07:39:21;;;;;;;21.77;19.88;;;16.40;99.90;;;;;;5042722;28;20055;-86
2022/09/11 07:41:48;;;;;;;23.90;21.80;;;16.60;99.90;;;;;;5033109;28;20426;-86
2022/09/11 07:44:15;;;;;;;21.20;19.38;;;16.70;99.90;;;;;;5033212;28;20047;-85
2022/09/11 07:46:42;;;;;;;22.98;21.02;;;16.90;99.90;;;;;;5042336;28;20830;-86
2022/09/11 07:49:08;;;;;;;18.02;16.42;;;17.10;99.90;;;;;;5060643;28;20566;-85
2022/09/11 07:51:35;;;;;;;20.02;18.23;;;17.30;99.90;;;;;;5057125;28;20550;-85
2022/09/11 07:54:02;;;;;;;18.42;16.92;;;17.50;99.90;;;;;;5054600;28;20119;-85
2022/09/11 07:56:29;;;;;;;16.63;15.23;;;17.70;99.90;;;;;;5044550;28;20041;-86
2022/09/11 07:58:56;;;;;;;17.67;16.08;;;17.90;99.90;;;;;;5057608;28;20318;-86
2022/09/11 08:01:28;;;;;;;16.00;14.40;;;18.00;99.90;;;;;;5057457;28;20048;-86
2022/09/11 08:03:57;;;;;;;16.95;15.32;;;18.30;99.90;;;;;;5078136;28;20060;-85
2022/09/11 08:06:25;;;;;;;13.82;12.63;;;18.50;99.90;;;;;;5068248;28;20041;-85
2022/09/11 08:08:54;;;;;;;14.00;12.70;;;18.60;99.90;;;;;;5060792;28;20047;-85
2022/09/11 08:11:20;;;;;;;13.73;12.43;;;18.70;99.90;;;;;;5058799;28;20051;-86
2022/09/11 08:13:49;;;;;;;13.82;12.52;;;18.90;99.90;;;;;;5071957;28;20235;-85
2022/09/11 08:16:20;;;;;;;12.43;11.32;;;19.10;99.90;;;;;;5054151;28;20447;-85
2022/09/11 08:18:47;;;;;;;13.23;11.95;;;19.30;99.90;;;;;;5069116;28;20052;-85
2022/09/11 08:21:13;;;;;;;13.25;11.90;;;19.50;99.90;;;;;;5066401;28;20046;-85
2022/09/11 08:23:41;;;;;;;13.43;12.20;;;19.60;99.90;;;;;;5048174;28;20075;-83
2022/09/11 08:26:12;;;;;;;11.20;9.45;;;19.80;99.90;;;;;;5059551;28;20522;-84
2022/09/11 08:28:41;;;;;;;8.82;7.85;;;19.90;99.90;;;;;;5065301;28;20094;-84
2022/09/11 08:31:08;;;;;;;9.73;8.02;;;20.00;99.90;;;;;;5057226;28;20722;-81
2022/09/11 08:33:34;;;;;;;8.77;7.70;;;20.10;99.90;;;;;;5040531;28;20086;-81
2022/09/11 08:36:02;;;;;;;7.93;6.45;;;20.20;99.90;;;;;;5067569;28;20044;-82
2022/09/11 08:38:29;;;;;;;7.25;6.43;;;20.10;99.90;;;;;;5055214;28;20037;-81
2022/09/11 08:41:23;;;;;;;8.63;5.72;;;19.90;99.90;;;;;;5050624;28;20048;-81
2022/09/11 08:44:26;;;;;;;8.73;5.43;;;19.70;99.90;;;;;;5072804;28;20055;-81
2022/09/11 08:47:00;;;;;;;7.30;5.13;;;19.70;99.90;;;;;;5000794;28;20052;-81
2022/09/11 08:49:43;;;;;;;7.63;5.78;;;19.70;99.90;;;;;;5057463;28;20053;-81
2022/09/11 08:52:12;;;;;;;7.75;5.00;;;19.70;99.90;;;;;;5057347;28;20041;-81
2022/09/11 08:54:40;;;;;;;5.28;4.13;;;19.70;99.90;;;;;;5056233;28;20083;-81
2022/09/11 08:57:28;;;;;;;4.55;2.95;;;19.80;99.90;;;;;;5060000;28;20052;-82
2022/09/11 09:00:01;;;;;;;7.70;3.58;;;19.90;99.90;;;;;;5053761;28;20075;-81
2022/09/11 09:02:30;;;;;;;5.20;3.42;;;19.90;99.90;;;;;;5056400;28;20087;-81
2022/09/11 09:05:14;;;;;;;5.93;2.70;;;19.80;99.90;;;;;;5054933;28;20721;-81
2022/09/11 09:07:40;;;;;;;5.32;1.95;;;19.90;99.90;;;;;;5066192;28;20049;-82
2022/09/11 09:10:20;;;;;;;4.40;2.30;;;20.20;99.90;;;;;;5069384;28;20051;-82
2022/09/11 09:12:52;;;;;;;;;;;20.20;99.90;;;;;;5060534;28;20036;-82
2022/09/11 09:15:52;;;;;;;5.03;2.25;;;20.20;99.90;;;;;;5071618;28;19928;-81
2022/09/11 09:18:30;;;;;;;5.57;2.03;;;20.10;99.90;;;;;;5049332;28;20040;-82
2022/09/11 09:21:02;;;;;;;5.57;2.00;;;19.90;99.90;;;;;;5069953;28;20048;-81
2022/09/11 09:23:35;;;;;;;7.15;2.03;;;19.80;99.90;;;;;;5064737;28;20044;-82
2022/09/11 09:26:07;;;;;;;6.50;3.20;;;19.90;99.90;;;;;;5045167;28;20122;-82
2022/09/11 09:28:46;;;;;;;4.22;2.78;;;20.00;99.90;;;;;;5061222;28;20044;-81
2022/09/11 09:31:18;;;;;;;6.10;3.65;;;20.10;99.90;;;;;;5058476;28;20041;-82
2022/09/11 09:33:48;;;;;;;5.47;4.05;;;20.00;99.90;;;;;;5050146;28;20802;-83
2022/09/11 09:36:22;;;;;;;5.65;3.38;;;20.00;99.90;;;;;;5048935;28;20430;-82
2022/09/11 09:38:48;;;;;;;7.10;2.92;;;19.90;99.90;;;;;;5076500;28;20186;-82
2022/09/11 09:41:53;;;;;;;5.07;3.20;;;19.90;99.90;;;;;;5023815;28;20147;-82
2022/09/11 09:44:30;;;;;;;5.10;2.78;;;20.00;99.90;;;;;;5067685;28;20052;-82
2022/09/11 09:46:58;;;;;;;5.03;2.70;;;20.30;99.90;;;;;;5055992;28;20043;-81
2022/09/11 09:49:31;;;;;;;5.07;2.40;;;20.60;99.90;;;;;;5032668;28;20517;-82
2022/09/11 09:52:02;;;;;;;6.82;2.65;;;20.80;99.90;;;;;;5048762;28;20040;-82
2022/09/11 09:54:32;;;;;;;3.72;1.92;;;20.90;99.90;;;;;;5068973;28;20063;-82
2022/09/11 09:57:05;;;;;;;5.75;1.98;;;21.10;99.90;;;;;;5064652;28;20047;-82
2022/09/11 09:59:48;;;;;;;3.45;1.90;;;21.40;99.90;;;;;;5055851;28;20554;-82
2022/09/11 10:02:36;;;;;;;4.03;1.88;;;21.70;99.90;;;;;;5057237;28;20051;-82
2022/09/11 10:05:15;;;;;;;4.57;2.05;;;21.80;99.90;;;;;;5067132;28;20048;-82
2022/09/11 10:07:58;;;;;;;4.03;2.17;;;21.80;99.90;;;;;;5046387;28;20044;-82
2022/09/11 10:10:36;;;;;;;4.18;2.20;;;21.60;99.90;;;;;;5059007;28;20552;-80
2022/09/11 10:13:23;;;;;;;4.28;2.10;;;21.40;99.90;;;;;;5055724;28;20040;-82
2022/09/11 10:16:03;;;;;;;5.28;2.10;;;21.10;99.90;;;;;;5060105;28;20036;-80
2022/09/11 10:18:29;;;;;;;4.68;2.00;;;20.90;99.90;;;;;;5048765;28;20068;-80
2022/09/11 10:21:10;;;;;;;6.63;2.20;;;20.60;99.90;;;;;;5068001;28;20105;-80
2022/09/11 10:23:53;;;;;;;3.63;1.90;;;20.50;99.90;;;;;;5054930;28;20056;-80
2022/09/11 10:26:44;;;;;;;4.45;1.77;;;20.40;99.90;;;;;;5058842;28;20119;-80
2022/09/11 10:29:18;;;;;;;3.17;2.00;;;20.30;99.90;;;;;;5053932;28;20048;-80
2022/09/11 10:31:53;;;;;;;3.63;2.00;;;20.30;99.90;;;;;;5055272;28;20090;-80
2022/09/11 10:34:21;;;;;;;4.32;2.00;;;20.50;99.90;;;;;;5069164;28;20149;-80
2022/09/11 10:37:00;;;;;;;3.97;1.60;;;20.60;99.90;;;;;;5057110;28;20044;-80
2022/09/11 10:39:30;;;;;;;4.07;1.90;;;20.80;99.90;;;;;;5075578;28;20109;-79
2022/09/11 10:42:00;;;;;;;3.25;1.40;;;21.00;99.90;;;;;;5071394;28;20051;-80
2022/09/11 10:44:28;;;;;;;4.25;1.38;;;21.30;99.90;;;;;;5073772;28;20048;-79
2022/09/11 10:47:14;;;;;;;5.10;1.58;;;21.50;99.90;;;;;;5049554;28;20044;-79
2022/09/11 10:49:41;;;;;;;3.35;1.30;;;21.80;99.90;;;;;;5067942;28;20071;-80
2022/09/11 10:52:07;;;;;;;3.95;1.65;;;21.90;99.90;;;;;;5044655;28;20568;-80
2022/09/11 10:55:00;;;;;;;4.22;1.40;;;22.00;99.90;;;;;;5059668;28;20131;-79
2022/09/11 10:57:46;;;;;;;3.35;1.45;;;22.10;99.90;;;;;;5080554;28;20049;-79
2022/09/11 11:00:28;;;;;;;3.42;1.33;;;22.10;99.90;;;;;;5079917;28;20049;-79
2022/09/11 11:03:04;;;;;;;3.05;1.20;;;22.10;99.90;;;;;;5061973;28;20062;-80
2022/09/11 11:05:32;;;;;;;3.45;1.17;;;22.00;99.90;;;;;;5083104;28;20486;-79
2022/09/11 11:08:19;;;;;;;2.63;1.17;;;22.00;99.90;;;;;;5082036;28;20071;-79
2022/09/11 11:11:05;;;;;;;4.10;1.38;;;22.10;99.90;;;;;;5086627;28;20121;-80
2022/09/11 11:13:34;;;;;;;3.85;1.70;;;22.30;99.90;;;;;;5069848;28;20040;-80
2022/09/11 11:16:26;;;;;;;3.72;1.40;;;22.60;99.90;;;;;;5087993;28;20044;-79
2022/09/11 11:18:58;;;;;;;3.50;1.65;;;22.80;99.90;;;;;;5064491;28;20663;-80
2022/09/11 11:21:36;;;;;;;3.55;1.60;;;22.80;99.90;;;;;;5078260;28;20040;-80
2022/09/11 11:24:32;;;;;;;2.63;1.50;;;22.80;99.90;;;;;;5086549;28;20036;-80
2022/09/11 11:27:28;;;;;;;1.77;0.90;;;22.60;99.90;;;;;;5063496;28;20040;-79
2022/09/11 11:30:02;;;;;;;2.67;1.20;;;22.40;99.90;;;;;;5075439;28;20111;-80
2022/09/11 11:32:55;;;;;;;2.60;1.35;;;22.30;99.90;;;;;;5062866;28;20085;-79
2022/09/11 11:35:43;;;;;;;2.65;1.33;;;22.20;99.90;;;;;;5058996;28;20051;-81
2022/09/11 11:38:19;;;;;;;4.60;2.30;;;22.10;99.90;;;;;;5082778;28;20338;-79
2022/09/11 11:40:56;;;;;;;4.72;2.05;;;21.90;99.90;;;;;;5065597;28;20052;-79
2022/09/11 11:43:31;;;;;;;3.70;1.90;;;21.70;99.90;;;;;;5074498;28;20151;-79
2022/09/11 11:46:04;;;;;;;3.35;2.40;;;21.60;99.90;;;;;;5079561;28;20088;-80
2022/09/11 11:48:43;;;;;;;6.25;2.17;;;21.40;99.90;;;;;;5056030;28;20055;-79
2022/09/11 11:51:23;;;;;;;4.53;2.60;;;21.30;99.90;;;;;;5080642;28;20084;-79
2022/09/11 11:54:08;;;;;;;4.70;2.22;;;21.20;99.90;;;;;;5079274;28;20109;-79
2022/09/11 11:56:43;;;;;;;4.00;1.83;;;21.10;99.90;;;;;;5052321;28;20066;-79
2022/09/11 11:59:10;;;;;;;4.75;2.67;;;21.10;99.90;;;;;;5051670;28;20051;-79
2022/09/11 12:01:47;;;;;;;3.92;2.50;;;21.00;99.90;;;;;;5052128;28;20045;-80
2022/09/11 12:04:19;;;;;;;4.53;2.33;;;21.00;99.90;;;;;;5053542;28;20041;-81
2022/09/11 12:06:45;;;;;;;4.45;2.55;;;21.00;99.90;;;;;;5048281;28;20495;-80
2022/09/11 12:09:15;;;;;;;3.97;2.10;;;21.00;99.90;;;;;;5069109;28;20119;-81
2022/09/11 12:11:45;;;;;;;4.38;2.00;;;21.00;99.90;;;;;;5061464;28;20568;-81
2022/09/11 12:14:28;;;;;;;4.90;2.20;;;21.00;99.90;;;;;;5070653;28;20033;-81
2022/09/11 12:17:14;;;;;;;6.53;2.50;;;21.00;99.90;;;;;;5051047;28;20040;-82
2022/09/11 12:20:09;;;;;;;4.65;2.15;;;21.10;99.90;;;;;;5040880;28;20147;-82
2022/09/11 12:22:43;;;;;;;3.22;1.65;;;21.50;99.90;;;;;;5073372;28;20392;-82
2022/09/11 12:25:19;;;;;;;3.28;1.70;;;21.70;99.90;;;;;;5056282;28;20037;-80
2022/09/11 12:27:45;;;;;;;3.38;1.80;;;21.90;99.90;;;;;;5051017;28;20048;-81
2022/09/11 12:30:17;;;;;;;4.18;2.30;;;22.00;99.90;;;;;;5049219;28;20037;-82
2022/09/11 12:32:50;;;;;;;4.88;2.00;;;22.00;99.90;;;;;;5077062;28;20052;-81
2022/09/11 12:35:40;;;;;;;4.13;2.10;;;22.00;99.90;;;;;;5071502;28;20665;-80
2022/09/11 12:38:07;;;;;;;3.83;2.10;;;22.00;99.90;;;;;;5065718;28;20595;-81
2022/09/11 12:40:55;;;;;;;3.80;1.73;;;21.90;99.90;;;;;;5048454;28;20044;-81
2022/09/11 12:43:32;;;;;;;4.28;2.00;;;21.80;99.90;;;;;;5050835;28;20045;-81
2022/09/11 12:45:58;;;;;;;3.20;1.63;;;21.90;99.90;;;;;;5046639;28;20153;-80
2022/09/11 12:48:47;;;;;;;2.85;1.95;;;22.00;99.90;;;;;;5044237;28;20702;-79
2022/09/11 12:51:38;;;;;;;6.03;2.35;;;22.20;99.90;;;;;;5050571;28;20135;-81
2022/09/11 12:54:21;;;;;;;4.85;1.92;;;22.30;99.90;;;;;;5067699;28;20572;-81
2022/09/11 12:56:51;;;;;;;4.97;2.00;;;22.20;99.90;;;;;;5064456;28;20039;-81
2022/09/11 12:59:30;;;;;;;4.70;1.85;;;22.20;99.90;;;;;;5062547;27;20161;-80
2022/09/11 13:01:56;;;;;;;3.97;1.87;;;22.20;99.90;;;;;;5086906;28;20039;-81